Pays
Station

 

Conditions  météo  pour  International Falls, Falls International Airport  -  Etats-Unis    Etats-Unis

  
-13 °C
    
 
 

METAR pour International Falls, Falls International Airport :

KINL 212236Z AUTO 16005KT 2 1/2SM -SN BKN040 BKN060 OVC080 M13/M16 A3015 RMK AO2 SNB18 P0000 T11281161 $

 

Voici le bulletin pour International Falls, Falls International Airport - Etats-Unis.
 
Le bulletin a été fait il y a un moment, à 22:36 UTC .
Le vent soufflait à la vitesse de 2.6 mètres par seconde de Sud/Sud-est (160°).
 
La température était de -13 °C, avec un point de rosée à -16 °C.
La température ressentie était de -18 °C.
 
La pression atmosphérique était de 1021 hPa.
L'humidité relative était de 78.1%.
 
Il y avait 5 à 7/8ème de nébulosité à une hauteur de 1219 mètres et 5 à 7/8ème de nébulosité à une hauteur de 1829 mètres. Le ciel était nuageux à partir d'une hauteur de 2438 mètres
 
La visibilité globale était de 4023 mètres.
 
Actuellement léger/legère neige.

 
 
 

Pays :   A   B   C   D   E   F   G   H   I   J   K   L   M   N   O   P   Q   R   S   T   U   V   W   Y   Z

 

Partenaires :  Info Météo avec Met'info
Météo Marine avec MeteoMarine.net
Infos Site  |  Infos Légales  |  Crédits  |  Confidentialité
Contactez-nous  |  Ajouter aux favoris
© 2013-2019 METAR - Tous droits réservés